Time;durP1;ratioP1;P1;durP2;ratioP2;P2;SDS_P1;SDS_P2;PMS_P1;PMS_P2;Temp;Humidity;BMP_temperature;BMP_pressure;BME280_temperature;BME280_humidity;BME280_pressure;Samples;Min_cycle;Max_cycle;Signal;HPM_P1;HPM_P2
2023/06/27 00:01:43;;;;;;;7.20;3.00;;;20.00;91.40;;;;;;5035232;28;20048;-89
2023/06/27 00:04:09;;;;;;;5.50;2.85;;;19.90;91.40;;;;;;5034696;28;20029;-89
2023/06/27 00:06:40;;;;;;;4.68;2.63;;;19.90;91.50;;;;;;5017337;28;20025;-89
2023/06/27 00:09:09;;;;;;;7.90;3.05;;;19.80;91.70;;;;;;5016877;28;20029;-89
2023/06/27 00:11:40;;;;;;;6.00;3.00;;;19.70;91.90;;;;;;5017609;28;20049;-89
2023/06/27 00:14:08;;;;;;;10.40;3.17;;;19.70;92.20;;;;;;5034318;28;20051;-88
2023/06/27 00:16:35;;;;;;;9.13;3.35;;;19.70;92.20;;;;;;5017090;28;20041;-89
2023/06/27 00:19:05;;;;;;;8.10;3.53;;;19.70;92.40;;;;;;5000481;28;20051;-88
2023/06/27 00:21:32;;;;;;;8.48;3.35;;;19.70;92.50;;;;;;5017129;28;20017;-88
2023/06/27 00:23:58;;;;;;;5.95;3.67;;;19.70;92.60;;;;;;5000569;28;20040;-88
2023/06/27 00:26:25;;;;;;;7.57;3.72;;;19.70;92.70;;;;;;5016536;28;20030;-88
2023/06/27 00:28:51;;;;;;;14.25;3.50;;;19.70;92.90;;;;;;5016992;28;20474;-88
2023/06/27 00:31:16;;;;;;;6.70;3.53;;;19.70;93.00;;;;;;5033311;28;20029;-88
2023/06/27 00:33:42;;;;;;;11.10;3.70;;;19.70;93.10;;;;;;5017059;28;20032;-88
2023/06/27 00:36:08;;;;;;;7.47;3.20;;;19.70;93.10;;;;;;5016799;28;20037;-89
2023/06/27 00:38:33;;;;;;;7.13;3.47;;;19.70;93.20;;;;;;5000671;28;20030;-88
2023/06/27 00:40:59;;;;;;;8.70;4.00;;;19.70;93.30;;;;;;5016944;28;20017;-88
2023/06/27 00:43:28;;;;;;;6.22;3.40;;;19.70;93.50;;;;;;5016501;28;20045;-89
2023/06/27 00:45:53;;;;;;;6.82;3.38;;;19.70;93.50;;;;;;5016664;28;20108;-89
2023/06/27 00:48:19;;;;;;;8.25;3.13;;;19.70;93.60;;;;;;5033241;28;20454;-89
2023/06/27 00:50:45;;;;;;;5.22;2.97;;;19.70;93.70;;;;;;5033809;28;20422;-89
2023/06/27 00:53:12;;;;;;;8.48;3.75;;;19.70;93.80;;;;;;5025884;28;20461;-89
2023/06/27 00:55:39;;;;;;;11.50;3.28;;;19.70;93.80;;;;;;5031133;28;20033;-88
2023/06/27 00:58:11;;;;;;;6.82;3.40;;;19.70;93.90;;;;;;5034784;28;20064;-88
2023/06/27 01:00:37;;;;;;;11.70;3.75;;;19.70;93.90;;;;;;5016899;28;20466;-88
2023/06/27 01:03:03;;;;;;;8.07;3.95;;;19.70;93.80;;;;;;5016336;28;20028;-89
2023/06/27 01:05:29;;;;;;;9.80;3.80;;;19.70;93.70;;;;;;5032845;28;20034;-89
2023/06/27 01:08:21;;;;;;;8.38;4.18;;;19.70;93.80;;;;;;5016706;28;20036;-89
2023/06/27 01:10:54;;;;;;;8.57;3.92;;;19.70;93.70;;;;;;5008220;28;20099;-90
2023/06/27 01:13:27;;;;;;;11.32;3.88;;;19.60;93.60;;;;;;5015885;28;20092;-89
2023/06/27 01:15:53;;;;;;;7.72;4.05;;;19.60;93.90;;;;;;5016218;28;20064;-89
2023/06/27 01:18:21;;;;;;;9.00;4.63;;;19.50;93.90;;;;;;5015807;28;20478;-88
2023/06/27 01:20:49;;;;;;;8.88;4.10;;;19.50;94.00;;;;;;5016428;28;20120;-89
2023/06/27 01:23:22;;;;;;;9.73;3.55;;;19.40;94.20;;;;;;5016091;28;20029;-89
2023/06/27 01:25:50;;;;;;;8.13;3.97;;;19.40;94.20;;;;;;5016226;28;20458;-89
2023/06/27 01:28:17;;;;;;;7.57;3.67;;;19.40;94.30;;;;;;5015595;28;20048;-89
2023/06/27 01:30:43;;;;;;;8.20;3.33;;;19.30;94.40;;;;;;5016184;28;20037;-88
2023/06/27 01:33:32;;;;;;;5.43;2.80;;;19.40;94.60;;;;;;5016103;28;20394;-85
2023/06/27 01:36:18;;;;;;;8.40;3.60;;;19.40;94.80;;;;;;5029831;28;20054;-89
2023/06/27 01:38:47;;;;;;;12.35;4.00;;;19.40;94.80;;;;;;5016180;28;20095;-87
2023/06/27 01:41:16;;;;;;;8.77;3.95;;;19.40;94.60;;;;;;5033294;28;20029;-89
2023/06/27 01:43:44;;;;;;;11.40;4.22;;;19.40;94.50;;;;;;5016405;28;20546;-90
2023/06/27 01:46:10;;;;;;;12.32;3.95;;;19.40;94.50;;;;;;5016069;28;20030;-87
2023/06/27 01:48:37;;;;;;;8.18;3.70;;;19.40;94.30;;;;;;5016408;28;20525;-89
2023/06/27 01:51:09;;;;;;;8.20;3.92;;;19.40;94.30;;;;;;5032841;28;20080;-89
2023/06/27 01:53:36;;;;;;;8.75;3.60;;;19.40;94.40;;;;;;5033456;28;20022;-89
2023/06/27 01:56:02;;;;;;;9.25;4.18;;;19.40;94.40;;;;;;5033877;28;20037;-90
2023/06/27 01:58:29;;;;;;;10.15;4.00;;;19.40;94.60;;;;;;5033284;28;20117;-89
2023/06/27 02:00:54;;;;;;;7.03;3.42;;;19.40;94.60;;;;;;5020181;28;20100;-89
2023/06/27 02:03:20;;;;;;;8.18;3.70;;;19.40;94.60;;;;;;5019816;28;20483;-89
2023/06/27 02:05:46;;;;;;;6.18;3.83;;;19.30;94.50;;;;;;5019862;28;20116;-89
2023/06/27 02:08:12;;;;;;;8.77;3.90;;;19.30;94.50;;;;;;5020065;28;20412;-86
2023/06/27 02:10:37;;;;;;;10.93;4.70;;;19.30;94.60;;;;;;5023033;28;20089;-90
2023/06/27 02:13:03;;;;;;;7.80;3.83;;;19.30;94.60;;;;;;5051689;28;20058;-89
2023/06/27 02:15:29;;;;;;;8.38;3.95;;;19.30;94.50;;;;;;5027317;28;20034;-90
2023/06/27 02:17:56;;;;;;;11.10;4.05;;;19.20;94.50;;;;;;5005014;28;20032;-89
2023/06/27 02:20:21;;;;;;;8.43;3.80;;;19.20;94.60;;;;;;5019968;28;20034;-89
2023/06/27 02:22:47;;;;;;;7.22;4.28;;;19.10;94.70;;;;;;5036436;28;20041;-89
2023/06/27 02:25:13;;;;;;;10.25;3.70;;;19.10;94.90;;;;;;5020172;28;20055;-89
2023/06/27 02:27:38;;;;;;;10.27;4.13;;;19.20;95.00;;;;;;5019695;28;20143;-89
2023/06/27 02:30:04;;;;;;;12.48;3.85;;;19.10;95.00;;;;;;5036299;28;20029;-87
2023/06/27 02:32:30;;;;;;;12.85;4.60;;;19.10;95.00;;;;;;5020299;28;20033;-89
2023/06/27 02:34:56;;;;;;;12.85;3.97;;;19.10;95.10;;;;;;5020331;28;20483;-88
2023/06/27 02:37:21;;;;;;;10.48;4.10;;;19.10;95.10;;;;;;5036648;28;20038;-88
2023/06/27 02:39:47;;;;;;;10.40;4.43;;;19.00;95.20;;;;;;5043238;28;20025;-88
2023/06/27 02:42:13;;;;;;;15.00;4.38;;;19.00;95.20;;;;;;5058864;28;20022;-88
2023/06/27 02:44:39;;;;;;;12.73;4.47;;;18.90;95.40;;;;;;5043476;28;20010;-86
2023/06/27 02:47:04;;;;;;;11.65;4.03;;;18.90;95.30;;;;;;5059635;28;20009;-87
2023/06/27 02:49:30;;;;;;;11.23;3.72;;;18.80;95.50;;;;;;5041152;28;20022;-87
2023/06/27 02:51:56;;;;;;;11.75;4.15;;;18.80;95.90;;;;;;5057873;28;20030;-87
2023/06/27 02:54:21;;;;;;;13.93;4.55;;;18.80;95.70;;;;;;5025568;28;20026;-86
2023/06/27 02:56:47;;;;;;;10.88;4.15;;;18.70;95.70;;;;;;5037999;28;20068;-88
2023/06/27 02:59:12;;;;;;;11.18;4.63;;;18.60;95.80;;;;;;5042720;28;20455;-88
2023/06/27 03:01:38;;;;;;;11.07;4.13;;;18.60;95.90;;;;;;5036861;28;20026;-89
2023/06/27 03:04:04;;;;;;;9.95;3.97;;;18.50;95.90;;;;;;5002819;28;20112;-88
2023/06/27 03:06:30;;;;;;;12.25;4.50;;;18.50;96.10;;;;;;5018635;28;20029;-88
2023/06/27 03:08:55;;;;;;;9.15;4.25;;;18.50;96.30;;;;;;5035725;28;20426;-88
2023/06/27 03:11:21;;;;;;;10.13;4.68;;;18.50;96.30;;;;;;5018685;28;20033;-87
2023/06/27 03:13:46;;;;;;;10.02;4.20;;;18.50;96.40;;;;;;5018801;28;20058;-89
2023/06/27 03:16:13;;;;;;;11.90;4.72;;;18.40;96.40;;;;;;5036270;28;20368;-89
2023/06/27 03:18:39;;;;;;;12.18;4.45;;;18.40;96.40;;;;;;5018500;28;20025;-89
2023/06/27 03:21:04;;;;;;;12.88;4.82;;;18.40;96.50;;;;;;5018664;28;20459;-89
2023/06/27 03:23:30;;;;;;;9.35;4.63;;;18.30;96.50;;;;;;5018689;28;20113;-89
2023/06/27 03:25:57;;;;;;;12.32;4.38;;;18.30;96.60;;;;;;5019060;28;20478;-89
2023/06/27 03:28:23;;;;;;;10.45;3.95;;;18.30;96.80;;;;;;5021510;28;20053;-88
2023/06/27 03:30:49;;;;;;;10.18;4.28;;;18.30;97.10;;;;;;5030738;28;20407;-88
2023/06/27 03:33:14;;;;;;;9.95;4.32;;;18.30;97.00;;;;;;5049576;28;20053;-88
2023/06/27 03:35:40;;;;;;;8.45;4.13;;;18.30;97.10;;;;;;5034991;28;20479;-89
2023/06/27 03:38:05;;;;;;;15.60;5.07;;;18.30;97.20;;;;;;5017949;28;20551;-88
2023/06/27 03:40:31;;;;;;;14.25;4.65;;;18.30;97.30;;;;;;5017875;28;20029;-89
2023/06/27 03:42:57;;;;;;;11.93;4.30;;;18.30;97.40;;;;;;5002167;28;20106;-89
2023/06/27 03:45:22;;;;;;;9.27;3.97;;;18.30;97.60;;;;;;5035054;28;20029;-89
2023/06/27 03:47:49;;;;;;;10.02;4.30;;;18.30;97.70;;;;;;5034723;28;20040;-88
2023/06/27 03:50:14;;;;;;;8.07;4.25;;;18.30;97.80;;;;;;5017952;28;20021;-89
2023/06/27 03:52:40;;;;;;;10.27;4.20;;;18.30;97.80;;;;;;5018523;28;20048;-89
2023/06/27 03:55:06;;;;;;;10.75;4.20;;;18.30;98.00;;;;;;5002407;28;20494;-89
2023/06/27 03:57:32;;;;;;;15.18;4.80;;;18.30;98.00;;;;;;5001871;28;20582;-89
2023/06/27 03:59:57;;;;;;;11.48;4.28;;;18.30;98.00;;;;;;5017908;28;20116;-90
2023/06/27 04:02:23;;;;;;;13.25;5.10;;;18.30;98.40;;;;;;5001738;28;20032;-90
2023/06/27 04:04:48;;;;;;;12.90;4.35;;;18.40;98.30;;;;;;5034302;28;20033;-89
2023/06/27 04:07:14;;;;;;;14.18;4.32;;;18.40;98.30;;;;;;5018130;28;20532;-89
2023/06/27 04:09:40;;;;;;;11.48;5.15;;;18.30;98.50;;;;;;5035553;28;20068;-89
2023/06/27 04:12:08;;;;;;;20.67;4.90;;;18.30;98.50;;;;;;5001855;28;20127;-89
2023/06/27 04:14:34;;;;;;;12.63;4.97;;;18.30;98.50;;;;;;5018029;28;20057;-90
2023/06/27 04:16:59;;;;;;;10.07;4.68;;;18.30;98.60;;;;;;5036014;28;20043;-90
2023/06/27 04:19:25;;;;;;;11.10;5.25;;;18.30;98.60;;;;;;5018359;28;20030;-90
2023/06/27 04:21:51;;;;;;;11.10;4.88;;;18.20;98.70;;;;;;5017241;28;20034;-89
2023/06/27 04:24:16;;;;;;;12.88;4.63;;;18.30;99.00;;;;;;5034878;28;20495;-90
2023/06/27 04:26:42;;;;;;;14.70;5.05;;;18.30;99.10;;;;;;5017806;28;20120;-90
2023/06/27 04:29:08;;;;;;;14.02;5.50;;;18.30;99.20;;;;;;5001537;28;20109;-89
2023/06/27 04:31:34;;;;;;;10.23;4.60;;;18.20;99.10;;;;;;5017278;28;20033;-90
2023/06/27 04:34:00;;;;;;;16.50;4.88;;;18.20;99.30;;;;;;5018328;28;20105;-89
2023/06/27 04:36:28;;;;;;;13.88;5.22;;;18.20;99.40;;;;;;5017654;28;20045;-88
2023/06/27 04:38:54;;;;;;;16.83;4.90;;;18.20;99.40;;;;;;5017738;28;20108;-88
2023/06/27 04:41:20;;;;;;;17.70;5.90;;;18.10;99.60;;;;;;5035497;28;20100;-88
2023/06/27 04:43:45;;;;;;;11.40;4.85;;;18.20;99.70;;;;;;5018314;28;20068;-89
2023/06/27 04:46:11;;;;;;;13.00;4.90;;;18.20;99.90;;;;;;5018551;28;20033;-88
2023/06/27 04:48:37;;;;;;;15.10;4.82;;;18.20;99.90;;;;;;5023793;28;20025;-87
2023/06/27 04:51:03;;;;;;;10.25;4.80;;;18.10;99.90;;;;;;5027548;28;20029;-88
2023/06/27 04:53:32;;;;;;;15.13;5.07;;;18.20;99.90;;;;;;5017173;28;20057;-83
2023/06/27 04:55:58;;;;;;;12.00;5.57;;;18.10;99.90;;;;;;5015731;28;20025;-84
2023/06/27 04:58:23;;;;;;;11.35;5.10;;;18.10;99.90;;;;;;4999821;28;20470;-84
2023/06/27 05:00:51;;;;;;;14.95;5.30;;;18.20;99.90;;;;;;5015286;28;20518;-83
2023/06/27 05:03:17;;;;;;;16.00;5.15;;;18.20;99.90;;;;;;5032336;28;20025;-83
2023/06/27 05:05:44;;;;;;;14.85;5.53;;;18.20;99.90;;;;;;5016233;28;20031;-88
2023/06/27 05:08:10;;;;;;;13.68;5.18;;;18.20;99.90;;;;;;5017667;28;20087;-87
2023/06/27 05:10:36;;;;;;;16.05;5.22;;;18.20;99.90;;;;;;5016553;28;20028;-88
2023/06/27 05:13:02;;;;;;;18.92;6.00;;;18.20;99.90;;;;;;5033844;28;20041;-88
2023/06/27 05:15:28;;;;;;;13.30;5.32;;;18.20;99.90;;;;;;5031797;28;20033;-87
2023/06/27 05:18:06;;;;;;;15.55;5.88;;;18.30;99.90;;;;;;4999492;28;20033;-87
2023/06/27 05:20:31;;;;;;;13.27;5.57;;;18.20;99.90;;;;;;5033951;28;20025;-88
2023/06/27 05:22:57;;;;;;;20.13;6.60;;;18.20;99.90;;;;;;5033695;28;20029;-89
2023/06/27 05:25:23;;;;;;;16.05;5.03;;;18.20;99.90;;;;;;5000016;28;20124;-87
2023/06/27 05:27:48;;;;;;;14.98;5.75;;;18.20;99.90;;;;;;5016775;28;20032;-89
2023/06/27 05:30:14;;;;;;;16.48;6.30;;;18.20;99.90;;;;;;5034672;28;20026;-88
2023/06/27 05:32:40;;;;;;;17.25;5.95;;;18.20;99.90;;;;;;5032724;28;20026;-89
2023/06/27 05:35:06;;;;;;;13.25;6.03;;;18.20;99.90;;;;;;5016784;28;20033;-89
2023/06/27 05:37:32;;;;;;;21.58;6.40;;;18.20;99.90;;;;;;5017689;28;20128;-89
2023/06/27 05:39:58;;;;;;;19.13;6.55;;;18.20;99.90;;;;;;5001491;28;20064;-89
2023/06/27 05:42:23;;;;;;;15.63;5.78;;;18.20;99.90;;;;;;5034853;28;20084;-89
2023/06/27 05:44:49;;;;;;;12.80;5.78;;;18.20;99.90;;;;;;5033090;28;20036;-88
2023/06/27 05:47:15;;;;;;;16.52;5.85;;;18.30;99.90;;;;;;5036923;28;20034;-88
2023/06/27 05:49:40;;;;;;;19.15;6.80;;;18.30;99.90;;;;;;5017518;28;20040;-88
2023/06/27 05:52:06;;;;;;;19.83;7.25;;;18.30;99.90;;;;;;5035385;28;20029;-89
2023/06/27 05:54:32;;;;;;;12.82;6.38;;;18.40;99.90;;;;;;5017385;28;20030;-89
2023/06/27 05:56:57;;;;;;;15.55;6.40;;;18.40;99.90;;;;;;5019273;28;20034;-88
2023/06/27 05:59:23;;;;;;;16.02;7.18;;;18.40;99.90;;;;;;5023799;28;20463;-88
2023/06/27 06:01:49;;;;;;;18.20;6.72;;;18.50;99.90;;;;;;5016781;28;20040;-88
2023/06/27 06:04:15;;;;;;;17.38;6.35;;;18.40;99.90;;;;;;5017465;28;20033;-87
2023/06/27 06:06:40;;;;;;;23.10;6.88;;;18.50;99.90;;;;;;5041210;28;20473;-87
2023/06/27 06:09:06;;;;;;;19.15;7.63;;;18.50;99.90;;;;;;5030076;28;20068;-87
2023/06/27 06:11:36;;;;;;;18.20;6.75;;;18.50;99.90;;;;;;5023157;28;20029;-88
2023/06/27 06:14:03;;;;;;;16.42;6.32;;;18.50;99.90;;;;;;5031466;28;20061;-86
2023/06/27 06:16:34;;;;;;;21.88;7.45;;;18.50;99.90;;;;;;5015725;28;20064;-87
2023/06/27 06:18:59;;;;;;;;;;;18.50;99.90;;;;;;5032521;28;20041;-87
2023/06/27 06:21:26;;;;;;;16.38;7.10;;;18.60;99.90;;;;;;5015650;28;19909;-87
2023/06/27 06:23:52;;;;;;;13.48;6.70;;;18.60;99.90;;;;;;5026976;28;20474;-87
2023/06/27 06:26:17;;;;;;;20.67;7.97;;;18.60;99.90;;;;;;5053288;28;20032;-87
2023/06/27 06:28:43;;;;;;;17.27;7.38;;;18.70;99.90;;;;;;5036005;28;20036;-85
2023/06/27 06:31:10;;;;;;;16.55;6.60;;;18.70;99.90;;;;;;5001846;28;20036;-87
2023/06/27 06:33:38;;;;;;;14.27;6.70;;;18.80;99.90;;;;;;5016168;28;20502;-87
2023/06/27 06:36:04;;;;;;;20.52;8.38;;;18.80;99.90;;;;;;4999848;28;20030;-87
2023/06/27 06:38:30;;;;;;;18.88;7.05;;;18.90;99.90;;;;;;5016950;28;20156;-87
2023/06/27 06:40:55;;;;;;;20.02;7.15;;;18.90;99.90;;;;;;5025601;28;20053;-87
2023/06/27 06:43:25;;;;;;;16.95;7.00;;;19.00;99.90;;;;;;5038104;28;20033;-89
2023/06/27 06:45:54;;;;;;;11.23;5.18;;;19.00;99.90;;;;;;5042460;28;20454;-88
2023/06/27 06:48:20;;;;;;;18.58;6.55;;;19.10;99.90;;;;;;5026970;28;20005;-86
2023/06/27 06:50:47;;;;;;;11.68;5.82;;;19.10;99.90;;;;;;5025315;28;20036;-90
2023/06/27 06:53:12;;;;;;;23.10;5.82;;;19.20;99.90;;;;;;5025228;28;20021;-85
2023/06/27 06:55:38;;;;;;;12.35;5.07;;;19.30;99.90;;;;;;5040558;28;20055;-88
2023/06/27 06:58:04;;;;;;;13.65;5.53;;;19.30;99.90;;;;;;5019652;28;20033;-88
2023/06/27 07:00:30;;;;;;;12.35;5.13;;;19.30;99.90;;;;;;5028121;28;20033;-88
2023/06/27 07:02:56;;;;;;;11.75;5.30;;;19.40;99.90;;;;;;5020453;28;20026;-89
2023/06/27 07:05:22;;;;;;;11.45;4.57;;;19.40;99.90;;;;;;5019652;28;20130;-89
2023/06/27 07:07:48;;;;;;;12.95;5.07;;;19.50;99.90;;;;;;5001882;28;20018;-86
2023/06/27 07:10:13;;;;;;;12.05;4.45;;;19.50;99.90;;;;;;5019232;28;20029;-85
2023/06/27 07:12:40;;;;;;;13.98;4.60;;;19.60;99.90;;;;;;5018200;28;20559;-85
2023/06/27 07:15:06;;;;;;;16.42;3.58;;;19.60;99.90;;;;;;5035991;28;20024;-85
2023/06/27 07:17:32;;;;;;;14.60;4.18;;;19.70;99.90;;;;;;5035705;28;20037;-86
2023/06/27 07:19:58;;;;;;;14.15;4.95;;;19.80;99.90;;;;;;5035564;28;20037;-86
2023/06/27 07:22:24;;;;;;;13.38;3.42;;;19.80;99.90;;;;;;5034760;28;20026;-85
2023/06/27 07:24:50;;;;;;;12.80;3.67;;;19.80;99.90;;;;;;5035561;28;20034;-88
2023/06/27 07:27:15;;;;;;;9.18;3.20;;;19.90;99.90;;;;;;5034584;28;20042;-86
2023/06/27 07:29:41;;;;;;;8.70;3.08;;;19.90;99.90;;;;;;5017832;28;20036;-87
2023/06/27 07:32:09;;;;;;;10.63;2.60;;;19.90;99.90;;;;;;5034481;28;20452;-88
2023/06/27 07:34:35;;;;;;;8.82;3.08;;;20.00;99.90;;;;;;5018259;28;20055;-88
2023/06/27 07:37:00;;;;;;;8.98;2.90;;;20.10;99.90;;;;;;5018535;28;20506;-89
2023/06/27 07:39:26;;;;;;;11.18;3.38;;;20.20;99.90;;;;;;5036494;28;20037;-89
2023/06/27 07:41:52;;;;;;;8.82;2.83;;;20.20;99.90;;;;;;5002725;28;20033;-86
2023/06/27 07:44:17;;;;;;;5.95;1.90;;;20.30;99.90;;;;;;5019677;28;20036;-90
2023/06/27 07:46:45;;;;;;;7.15;2.47;;;20.40;99.90;;;;;;5018999;28;20063;-89
2023/06/27 07:49:11;;;;;;;9.02;2.33;;;20.40;99.90;;;;;;5017828;28;20025;-89
2023/06/27 07:51:36;;;;;;;5.40;2.10;;;20.50;99.90;;;;;;5035925;28;20032;-89
2023/06/27 07:54:03;;;;;;;7.88;2.38;;;20.50;99.90;;;;;;5001866;28;20091;-89
2023/06/27 07:56:29;;;;;;;6.40;2.40;;;20.60;99.90;;;;;;5034367;28;20029;-88
2023/06/27 07:58:54;;;;;;;9.52;2.50;;;20.60;99.90;;;;;;5018145;28;20491;-90
2023/06/27 08:01:20;;;;;;;9.23;2.33;;;20.70;99.90;;;;;;5035404;28;20028;-89
2023/06/27 08:03:46;;;;;;;7.25;1.83;;;20.70;99.90;;;;;;5017577;28;20029;-83
2023/06/27 08:06:12;;;;;;;5.72;1.80;;;20.70;99.90;;;;;;5016182;28;20497;-83
2023/06/27 08:08:38;;;;;;;9.68;2.20;;;20.70;99.90;;;;;;5034045;28;20029;-83
2023/06/27 08:11:04;;;;;;;5.88;1.95;;;20.80;99.90;;;;;;5018288;28;20026;-82
2023/06/27 08:13:29;;;;;;;5.93;2.05;;;20.80;99.90;;;;;;5016017;28;20049;-83
2023/06/27 08:15:55;;;;;;;7.65;1.70;;;20.80;99.90;;;;;;5016306;28;20033;-82
2023/06/27 08:18:21;;;;;;;5.95;1.90;;;20.90;99.90;;;;;;5033830;28;20438;-83
2023/06/27 08:20:46;;;;;;;12.75;2.35;;;20.90;99.90;;;;;;5016286;28;20048;-84
2023/06/27 08:23:13;;;;;;;7.30;2.28;;;20.90;99.90;;;;;;5033638;28;20053;-83
2023/06/27 08:25:38;;;;;;;8.10;2.05;;;21.00;99.90;;;;;;5016103;28;20034;-83
2023/06/27 08:28:04;;;;;;;8.10;2.63;;;21.00;99.90;;;;;;5016465;28;20041;-83
2023/06/27 08:30:31;;;;;;;5.72;1.98;;;21.10;99.70;;;;;;5016236;28;20053;-83
2023/06/27 08:32:56;;;;;;;7.80;2.45;;;21.10;99.40;;;;;;5015992;28;20029;-82
2023/06/27 08:35:23;;;;;;;5.88;2.08;;;21.20;99.10;;;;;;5016340;28;20029;-83
2023/06/27 08:37:48;;;;;;;8.77;2.40;;;21.20;98.90;;;;;;5033847;28;20025;-84
2023/06/27 08:40:24;;;;;;;5.43;1.92;;;21.30;98.70;;;;;;5033431;28;20039;-83
2023/06/27 08:42:50;;;;;;;5.28;1.50;;;21.30;98.10;;;;;;5016145;28;20056;-83
2023/06/27 08:45:16;;;;;;;5.88;1.85;;;21.30;97.60;;;;;;5015815;28;20057;-83
2023/06/27 08:47:45;;;;;;;6.85;1.85;;;21.40;97.40;;;;;;5015723;28;20429;-83
2023/06/27 08:50:15;;;;;;;8.98;2.30;;;21.40;97.40;;;;;;5033536;28;20034;-83
2023/06/27 08:52:59;;;;;;;6.80;1.60;;;21.40;97.50;;;;;;5033312;28;20053;-82
2023/06/27 08:56:02;;;;;;;7.10;1.92;;;21.50;97.70;;;;;;5033209;28;20024;-82
2023/06/27 08:58:31;;;;;;;7.07;2.00;;;21.60;97.10;;;;;;5015976;28;20101;-87
2023/06/27 09:01:00;;;;;;;7.70;2.22;;;21.60;97.20;;;;;;5000226;28;20061;-82
2023/06/27 09:03:26;;;;;;;6.50;2.17;;;21.60;96.70;;;;;;4999598;28;20116;-83
2023/06/27 09:05:53;;;;;;;8.13;2.10;;;21.70;96.60;;;;;;4999031;28;20041;-83
2023/06/27 09:08:19;;;;;;;7.75;2.22;;;21.70;96.50;;;;;;5033138;28;20025;-83
2023/06/27 09:10:45;;;;;;;7.47;2.03;;;21.70;96.30;;;;;;5030436;28;20034;-84
2023/06/27 09:13:11;;;;;;;4.25;1.88;;;21.70;95.90;;;;;;5032579;28;20415;-83
2023/06/27 09:15:36;;;;;;;8.20;1.80;;;21.70;95.60;;;;;;5032851;28;20032;-82
2023/06/27 09:18:02;;;;;;;6.32;1.90;;;21.70;94.70;;;;;;5031656;28;20116;-84
2023/06/27 09:20:28;;;;;;;4.28;1.50;;;21.70;94.40;;;;;;5033029;28;20541;-84
2023/06/27 09:23:02;;;;;;;11.27;2.25;;;21.70;94.30;;;;;;5015310;28;20055;-84
2023/06/27 09:25:28;;;;;;;7.15;1.50;;;21.80;94.00;;;;;;5025999;28;20018;-84
2023/06/27 09:27:54;;;;;;;3.80;1.40;;;21.80;93.80;;;;;;5015453;28;20080;-84
2023/06/27 09:30:19;;;;;;;5.70;1.40;;;21.80;93.90;;;;;;5031412;28;20391;-83
2023/06/27 09:32:59;;;;;;;5.00;1.38;;;21.90;94.00;;;;;;4998952;28;20022;-83
2023/06/27 09:35:26;;;;;;;10.43;2.15;;;21.90;93.60;;;;;;5014897;28;20026;-83
2023/06/27 09:37:53;;;;;;;5.13;1.75;;;22.00;93.40;;;;;;5014831;28;20483;-83
2023/06/27 09:40:27;;;;;;;6.75;1.63;;;22.00;93.10;;;;;;5013550;28;20063;-83
2023/06/27 09:42:58;;;;;;;3.95;1.17;;;22.00;92.80;;;;;;5015107;28;20021;-83
2023/06/27 09:45:29;;;;;;;9.05;1.23;;;22.10;93.00;;;;;;5032440;28;20129;-84
2023/06/27 09:47:54;;;;;;;5.82;1.35;;;22.20;92.40;;;;;;5032804;28;20534;-83
2023/06/27 09:50:28;;;;;;;4.78;1.80;;;22.20;92.10;;;;;;5015059;28;20049;-84
2023/06/27 09:52:57;;;;;;;5.22;2.17;;;22.20;92.10;;;;;;4998899;28;20026;-83
2023/06/27 09:55:22;;;;;;;2.85;1.10;;;22.30;92.10;;;;;;5015903;28;20479;-87
2023/06/27 09:57:48;;;;;;;2.80;1.40;;;22.40;91.80;;;;;;5000277;28;20131;-88
2023/06/27 10:00:18;;;;;;;4.78;1.45;;;22.40;90.70;;;;;;5032949;28;20491;-86
2023/06/27 10:02:48;;;;;;;3.70;1.20;;;22.40;90.60;;;;;;5035333;28;20029;-87
2023/06/27 10:05:17;;;;;;;8.13;1.30;;;22.40;90.30;;;;;;5012419;28;20032;-89
2023/06/27 10:07:44;;;;;;;3.72;1.27;;;22.40;90.00;;;;;;5017501;28;20036;-90
2023/06/27 10:10:11;;;;;;;7.28;1.40;;;22.50;90.20;;;;;;5003021;28;20121;-90
2023/06/27 10:12:37;;;;;;;8.27;1.63;;;22.50;90.70;;;;;;5011524;28;20022;-90
2023/06/27 10:15:08;;;;;;;5.20;1.67;;;22.60;90.70;;;;;;5014938;28;20046;-90
2023/06/27 10:17:34;;;;;;;5.18;1.40;;;22.60;90.70;;;;;;4997498;28;20088;-90
2023/06/27 10:20:00;;;;;;;5.28;1.33;;;22.60;90.50;;;;;;4998941;28;20078;-89
2023/06/27 10:22:31;;;;;;;4.57;1.45;;;22.60;90.20;;;;;;5001445;28;20087;-89
2023/06/27 10:25:03;;;;;;;3.50;1.23;;;22.60;89.20;;;;;;5019549;28;20537;-86
2023/06/27 10:27:35;;;;;;;4.10;1.25;;;22.60;89.10;;;;;;5018660;28;20036;-90
2023/06/27 10:30:20;;;;;;;4.90;1.45;;;22.60;89.50;;;;;;4984463;28;20036;-89
2023/06/27 10:32:47;;;;;;;4.43;1.25;;;22.70;88.90;;;;;;5001249;28;20022;-88
2023/06/27 10:35:24;;;;;;;9.32;2.05;;;22.70;89.60;;;;;;5000175;28;20022;-87
2023/06/27 10:38:14;;;;;;;6.13;1.30;;;22.80;89.90;;;;;;4985178;28;20069;-89
2023/06/27 10:41:10;;;;;;;6.45;1.23;;;22.80;89.60;;;;;;4985422;28;20058;-90
2023/06/27 10:43:52;;;;;;;5.95;1.42;;;22.80;88.10;;;;;;4993801;28;20041;-87
2023/06/27 10:46:23;;;;;;;5.20;1.50;;;22.80;87.30;;;;;;5031302;28;20081;-86
2023/06/27 10:48:53;;;;;;;6.65;1.40;;;22.90;87.70;;;;;;5059921;28;20023;-87
2023/06/27 10:51:21;;;;;;;5.32;1.52;;;22.80;87.90;;;;;;5026746;28;20085;-87
2023/06/27 10:54:09;;;;;;;4.00;1.30;;;22.80;87.20;;;;;;5040797;28;20045;-87
2023/06/27 10:56:37;;;;;;;4.90;1.30;;;22.80;86.60;;;;;;5040033;28;20041;-87
2023/06/27 10:59:04;;;;;;;6.85;1.50;;;22.80;87.00;;;;;;5036457;28;20084;-89
2023/06/27 11:01:34;;;;;;;5.80;1.70;;;22.90;86.70;;;;;;5013762;28;20036;-89
2023/06/27 11:04:15;;;;;;;4.40;1.10;;;22.80;85.90;;;;;;5004921;28;20036;-89
2023/06/27 11:06:42;;;;;;;3.08;1.30;;;22.80;85.30;;;;;;5005227;28;20045;-90
2023/06/27 11:09:17;;;;;;;4.03;1.30;;;22.90;85.50;;;;;;5020214;28;20026;-90
2023/06/27 11:12:14;;;;;;;10.68;1.80;;;22.90;85.70;;;;;;5024674;28;20083;-87
2023/06/27 11:14:44;;;;;;;4.90;1.15;;;22.90;86.70;;;;;;5035139;28;20045;-86
2023/06/27 11:17:11;;;;;;;6.80;1.30;;;22.90;86.70;;;;;;5037847;28;20136;-89
2023/06/27 11:19:38;;;;;;;4.30;1.35;;;22.90;87.40;;;;;;5044564;28;20029;-87
2023/06/27 11:22:05;;;;;;;7.18;1.45;;;23.00;88.20;;;;;;5051384;28;20064;-87
2023/06/27 11:24:31;;;;;;;3.22;1.15;;;23.10;87.30;;;;;;5039674;28;20017;-88
2023/06/27 11:26:58;;;;;;;5.15;1.20;;;23.10;85.90;;;;;;5037923;28;20033;-87
2023/06/27 11:29:25;;;;;;;4.78;1.10;;;23.10;85.20;;;;;;5021708;28;20033;-88
2023/06/27 11:31:51;;;;;;;4.80;1.48;;;23.10;84.50;;;;;;5056198;28;20026;-87
2023/06/27 11:34:18;;;;;;;3.20;1.20;;;23.20;84.40;;;;;;5021685;28;20025;-88
2023/06/27 11:36:44;;;;;;;3.63;1.13;;;23.20;85.00;;;;;;5021502;28;20044;-88
2023/06/27 11:39:11;;;;;;;9.70;1.50;;;23.20;85.90;;;;;;5038030;28;20067;-87
2023/06/27 11:41:45;;;;;;;4.53;1.30;;;23.20;86.30;;;;;;5038224;28;20029;-88
2023/06/27 11:44:12;;;;;;;3.55;1.17;;;23.30;86.10;;;;;;5037944;28;20032;-83
2023/06/27 11:46:59;;;;;;;3.25;0.98;;;23.30;86.70;;;;;;5037099;28;20033;-84
2023/06/27 11:49:25;;;;;;;10.38;1.83;;;23.30;86.00;;;;;;5036810;28;20024;-84
2023/06/27 11:51:51;;;;;;;3.53;1.20;;;23.40;85.80;;;;;;5020366;28;20469;-83
2023/06/27 11:54:19;;;;;;;3.85;1.20;;;23.40;86.30;;;;;;5036763;28;20055;-83
2023/06/27 11:56:45;;;;;;;4.90;1.40;;;23.50;86.40;;;;;;5054815;28;20033;-84
2023/06/27 11:59:12;;;;;;;4.80;1.58;;;23.60;87.00;;;;;;5036952;28;20029;-84
2023/06/27 12:01:42;;;;;;;5.10;1.50;;;23.60;86.50;;;;;;5020711;28;20458;-83
2023/06/27 12:04:17;;;;;;;7.15;1.52;;;23.70;86.00;;;;;;5037208;28;20021;-89
2023/06/27 12:06:45;;;;;;;3.60;1.13;;;23.70;84.30;;;;;;5021884;28;20033;-90
2023/06/27 12:09:25;;;;;;;3.38;1.40;;;23.80;83.90;;;;;;5022322;28;20067;-90
2023/06/27 12:11:59;;;;;;;;;;;23.80;84.00;;;;;;5019709;28;20025;-86
2023/06/27 12:14:26;;;;;;;4.57;1.25;;;23.90;82.70;;;;;;5016203;28;19964;-85
2023/06/27 12:16:55;;;;;;;4.05;1.48;;;23.90;82.80;;;;;;5016420;28;20099;-85
2023/06/27 12:19:23;;;;;;;9.15;1.27;;;23.90;83.00;;;;;;5016845;28;20017;-86
2023/06/27 12:21:49;;;;;;;12.45;2.13;;;24.00;83.00;;;;;;5000427;28;20029;-85
2023/06/27 12:24:15;;;;;;;4.82;1.60;;;24.00;83.20;;;;;;5000496;28;20022;-85
2023/06/27 12:26:41;;;;;;;5.47;1.30;;;24.10;82.10;;;;;;5033071;28;20391;-85
2023/06/27 12:29:08;;;;;;;8.23;1.52;;;24.10;82.60;;;;;;5016649;28;20364;-85
2023/06/27 12:31:35;;;;;;;4.28;1.20;;;24.10;83.10;;;;;;5015976;28;20070;-86
2023/06/27 12:34:01;;;;;;;5.30;1.25;;;24.10;81.30;;;;;;5016603;28;20036;-86
2023/06/27 12:36:27;;;;;;;7.10;1.55;;;24.20;79.70;;;;;;5034197;28;20156;-85
2023/06/27 12:38:53;;;;;;;5.03;1.40;;;24.20;80.10;;;;;;5019419;28;20078;-85
2023/06/27 12:41:20;;;;;;;4.70;1.35;;;24.20;80.30;;;;;;5017300;28;20052;-85
2023/06/27 12:43:47;;;;;;;5.40;1.50;;;24.20;81.70;;;;;;5016421;28;20033;-87
2023/06/27 12:46:13;;;;;;;4.43;1.30;;;24.30;82.50;;;;;;5054211;28;20030;-88